sensor_id;sensor_type;location;lat;lon;timestamp;P1;durP1;ratioP1;P2;durP2;ratioP2
13588;SDS011;6865;52.552;13.434;2023-04-15T00:01:24;24.60;;;19.83;;
13588;SDS011;6865;52.552;13.434;2023-04-15T00:03:52;25.40;;;20.27;;
13588;SDS011;6865;52.552;13.434;2023-04-15T00:06:20;30.53;;;22.20;;
13588;SDS011;6865;52.552;13.434;2023-04-15T00:08:47;29.23;;;21.50;;
13588;SDS011;6865;52.552;13.434;2023-04-15T00:11:16;26.67;;;21.77;;
13588;SDS011;6865;52.552;13.434;2023-04-15T00:13:43;27.37;;;21.43;;
13588;SDS011;6865;52.552;13.434;2023-04-15T00:16:10;29.13;;;21.97;;
13588;SDS011;6865;52.552;13.434;2023-04-15T00:18:37;30.93;;;22.57;;
13588;SDS011;6865;52.552;13.434;2023-04-15T00:21:04;31.90;;;21.83;;
13588;SDS011;6865;52.552;13.434;2023-04-15T00:23:31;29.23;;;21.93;;
13588;SDS011;6865;52.552;13.434;2023-04-15T00:25:57;30.53;;;22.33;;
13588;SDS011;6865;52.552;13.434;2023-04-15T00:28:24;29.00;;;22.07;;
13588;SDS011;6865;52.552;13.434;2023-04-15T00:30:51;28.93;;;21.30;;
13588;SDS011;6865;52.552;13.434;2023-04-15T00:33:17;29.40;;;21.70;;
13588;SDS011;6865;52.552;13.434;2023-04-15T00:35:44;33.10;;;24.07;;
13588;SDS011;6865;52.552;13.434;2023-04-15T00:38:11;32.87;;;23.37;;
13588;SDS011;6865;52.552;13.434;2023-04-15T00:40:38;32.93;;;23.17;;
13588;SDS011;6865;52.552;13.434;2023-04-15T00:43:05;31.23;;;22.97;;
13588;SDS011;6865;52.552;13.434;2023-04-15T00:45:32;34.30;;;23.83;;
13588;SDS011;6865;52.552;13.434;2023-04-15T00:47:59;32.47;;;22.90;;
13588;SDS011;6865;52.552;13.434;2023-04-15T00:50:26;34.27;;;24.37;;
13588;SDS011;6865;52.552;13.434;2023-04-15T00:52:52;33.93;;;24.80;;
13588;SDS011;6865;52.552;13.434;2023-04-15T00:55:19;37.80;;;24.67;;
13588;SDS011;6865;52.552;13.434;2023-04-15T00:57:46;37.60;;;25.90;;
13588;SDS011;6865;52.552;13.434;2023-04-15T01:00:13;33.77;;;23.47;;
13588;SDS011;6865;52.552;13.434;2023-04-15T01:02:40;32.43;;;23.97;;
13588;SDS011;6865;52.552;13.434;2023-04-15T01:05:07;35.87;;;24.97;;
13588;SDS011;6865;52.552;13.434;2023-04-15T01:07:34;35.30;;;25.40;;
13588;SDS011;6865;52.552;13.434;2023-04-15T01:10:02;33.70;;;24.17;;
13588;SDS011;6865;52.552;13.434;2023-04-15T01:12:29;33.73;;;23.43;;
13588;SDS011;6865;52.552;13.434;2023-04-15T01:14:58;35.13;;;25.23;;
13588;SDS011;6865;52.552;13.434;2023-04-15T01:17:25;36.20;;;25.60;;
13588;SDS011;6865;52.552;13.434;2023-04-15T01:19:52;39.37;;;26.07;;
13588;SDS011;6865;52.552;13.434;2023-04-15T01:22:21;33.50;;;24.90;;
13588;SDS011;6865;52.552;13.434;2023-04-15T01:25:10;40.27;;;26.00;;
13588;SDS011;6865;52.552;13.434;2023-04-15T01:27:38;39.53;;;26.17;;
13588;SDS011;6865;52.552;13.434;2023-04-15T01:30:06;39.20;;;25.53;;
13588;SDS011;6865;52.552;13.434;2023-04-15T01:32:33;38.13;;;25.93;;
13588;SDS011;6865;52.552;13.434;2023-04-15T01:35:00;39.33;;;25.80;;
13588;SDS011;6865;52.552;13.434;2023-04-15T01:37:28;37.90;;;26.77;;
13588;SDS011;6865;52.552;13.434;2023-04-15T01:39:55;39.80;;;26.33;;
13588;SDS011;6865;52.552;13.434;2023-04-15T01:42:23;34.67;;;24.70;;
13588;SDS011;6865;52.552;13.434;2023-04-15T01:44:49;38.83;;;26.57;;
13588;SDS011;6865;52.552;13.434;2023-04-15T01:47:16;39.87;;;26.03;;
13588;SDS011;6865;52.552;13.434;2023-04-15T01:49:42;40.37;;;25.37;;
13588;SDS011;6865;52.552;13.434;2023-04-15T01:52:09;37.30;;;23.77;;
13588;SDS011;6865;52.552;13.434;2023-04-15T01:54:35;39.10;;;26.07;;
13588;SDS011;6865;52.552;13.434;2023-04-15T01:57:02;39.20;;;26.10;;
13588;SDS011;6865;52.552;13.434;2023-04-15T01:59:29;40.57;;;26.33;;
13588;SDS011;6865;52.552;13.434;2023-04-15T02:01:57;39.93;;;25.80;;
13588;SDS011;6865;52.552;13.434;2023-04-15T02:04:23;39.07;;;25.77;;
13588;SDS011;6865;52.552;13.434;2023-04-15T02:06:50;41.20;;;26.30;;
13588;SDS011;6865;52.552;13.434;2023-04-15T02:09:17;38.87;;;26.67;;
13588;SDS011;6865;52.552;13.434;2023-04-15T02:11:44;37.93;;;25.70;;
13588;SDS011;6865;52.552;13.434;2023-04-15T02:14:10;40.33;;;25.63;;
13588;SDS011;6865;52.552;13.434;2023-04-15T02:16:37;39.57;;;25.60;;
13588;SDS011;6865;52.552;13.434;2023-04-15T02:19:04;42.97;;;26.20;;
13588;SDS011;6865;52.552;13.434;2023-04-15T02:21:30;40.30;;;25.10;;
13588;SDS011;6865;52.552;13.434;2023-04-15T02:23:57;36.40;;;24.70;;
13588;SDS011;6865;52.552;13.434;2023-04-15T02:26:24;39.03;;;26.37;;
13588;SDS011;6865;52.552;13.434;2023-04-15T02:28:50;36.90;;;25.17;;
13588;SDS011;6865;52.552;13.434;2023-04-15T02:31:17;37.33;;;24.90;;
13588;SDS011;6865;52.552;13.434;2023-04-15T02:33:44;39.53;;;24.83;;
13588;SDS011;6865;52.552;13.434;2023-04-15T02:36:11;40.07;;;26.30;;
13588;SDS011;6865;52.552;13.434;2023-04-15T02:38:38;38.63;;;25.47;;
13588;SDS011;6865;52.552;13.434;2023-04-15T02:41:08;38.57;;;26.13;;
13588;SDS011;6865;52.552;13.434;2023-04-15T02:43:35;38.70;;;25.10;;
13588;SDS011;6865;52.552;13.434;2023-04-15T02:46:03;36.60;;;24.93;;
13588;SDS011;6865;52.552;13.434;2023-04-15T02:48:29;38.00;;;24.93;;
13588;SDS011;6865;52.552;13.434;2023-04-15T02:51:12;39.60;;;25.10;;
13588;SDS011;6865;52.552;13.434;2023-04-15T02:53:46;36.27;;;24.60;;
13588;SDS011;6865;52.552;13.434;2023-04-15T02:56:14;35.10;;;24.07;;
13588;SDS011;6865;52.552;13.434;2023-04-15T02:58:42;37.50;;;24.50;;
13588;SDS011;6865;52.552;13.434;2023-04-15T03:01:10;40.10;;;25.23;;
13588;SDS011;6865;52.552;13.434;2023-04-15T03:03:37;36.77;;;24.87;;
13588;SDS011;6865;52.552;13.434;2023-04-15T03:06:04;39.33;;;25.43;;
13588;SDS011;6865;52.552;13.434;2023-04-15T03:08:30;40.07;;;24.93;;
13588;SDS011;6865;52.552;13.434;2023-04-15T03:10:57;38.13;;;25.77;;
13588;SDS011;6865;52.552;13.434;2023-04-15T03:13:25;36.13;;;24.13;;
13588;SDS011;6865;52.552;13.434;2023-04-15T03:15:52;40.13;;;25.13;;
13588;SDS011;6865;52.552;13.434;2023-04-15T03:18:19;35.83;;;23.97;;
13588;SDS011;6865;52.552;13.434;2023-04-15T03:20:46;35.23;;;23.93;;
13588;SDS011;6865;52.552;13.434;2023-04-15T03:23:13;37.30;;;24.57;;
13588;SDS011;6865;52.552;13.434;2023-04-15T03:25:39;39.47;;;24.57;;
13588;SDS011;6865;52.552;13.434;2023-04-15T03:28:06;37.40;;;24.13;;
13588;SDS011;6865;52.552;13.434;2023-04-15T03:30:33;38.27;;;23.90;;
13588;SDS011;6865;52.552;13.434;2023-04-15T03:33:00;36.07;;;24.63;;
13588;SDS011;6865;52.552;13.434;2023-04-15T03:35:26;35.63;;;23.90;;
13588;SDS011;6865;52.552;13.434;2023-04-15T03:37:53;38.47;;;23.53;;
13588;SDS011;6865;52.552;13.434;2023-04-15T03:40:20;39.00;;;24.33;;
13588;SDS011;6865;52.552;13.434;2023-04-15T03:42:46;37.37;;;24.17;;
13588;SDS011;6865;52.552;13.434;2023-04-15T03:45:13;34.77;;;23.63;;
13588;SDS011;6865;52.552;13.434;2023-04-15T03:47:40;37.03;;;23.60;;
13588;SDS011;6865;52.552;13.434;2023-04-15T03:50:06;37.30;;;23.50;;
13588;SDS011;6865;52.552;13.434;2023-04-15T03:52:33;34.50;;;23.37;;
13588;SDS011;6865;52.552;13.434;2023-04-15T03:55:00;33.07;;;22.53;;
13588;SDS011;6865;52.552;13.434;2023-04-15T03:57:28;33.23;;;23.00;;
13588;SDS011;6865;52.552;13.434;2023-04-15T03:59:54;29.90;;;22.00;;
13588;SDS011;6865;52.552;13.434;2023-04-15T04:02:21;31.33;;;21.33;;
13588;SDS011;6865;52.552;13.434;2023-04-15T04:04:48;32.97;;;23.27;;
13588;SDS011;6865;52.552;13.434;2023-04-15T04:07:16;35.27;;;23.03;;
13588;SDS011;6865;52.552;13.434;2023-04-15T04:09:43;31.13;;;22.67;;
13588;SDS011;6865;52.552;13.434;2023-04-15T04:12:12;35.17;;;22.97;;
13588;SDS011;6865;52.552;13.434;2023-04-15T04:14:38;33.60;;;22.03;;
13588;SDS011;6865;52.552;13.434;2023-04-15T04:17:05;32.10;;;21.67;;
13588;SDS011;6865;52.552;13.434;2023-04-15T04:19:32;35.47;;;22.70;;
13588;SDS011;6865;52.552;13.434;2023-04-15T04:21:59;32.73;;;22.43;;
13588;SDS011;6865;52.552;13.434;2023-04-15T04:24:26;31.20;;;21.93;;
13588;SDS011;6865;52.552;13.434;2023-04-15T04:26:52;28.73;;;20.57;;
13588;SDS011;6865;52.552;13.434;2023-04-15T04:29:19;30.20;;;20.93;;
13588;SDS011;6865;52.552;13.434;2023-04-15T04:31:45;34.13;;;21.53;;
13588;SDS011;6865;52.552;13.434;2023-04-15T04:34:14;30.60;;;21.23;;
13588;SDS011;6865;52.552;13.434;2023-04-15T04:36:41;29.00;;;20.67;;
13588;SDS011;6865;52.552;13.434;2023-04-15T04:39:08;30.30;;;20.30;;
13588;SDS011;6865;52.552;13.434;2023-04-15T04:41:34;28.33;;;21.20;;
13588;SDS011;6865;52.552;13.434;2023-04-15T04:44:01;28.20;;;20.83;;
13588;SDS011;6865;52.552;13.434;2023-04-15T04:46:28;28.27;;;20.87;;
13588;SDS011;6865;52.552;13.434;2023-04-15T04:48:55;26.27;;;19.43;;
13588;SDS011;6865;52.552;13.434;2023-04-15T04:51:21;31.90;;;20.80;;
13588;SDS011;6865;52.552;13.434;2023-04-15T04:53:48;27.50;;;19.63;;
13588;SDS011;6865;52.552;13.434;2023-04-15T04:56:15;27.80;;;20.47;;
13588;SDS011;6865;52.552;13.434;2023-04-15T04:58:55;26.93;;;19.83;;
13588;SDS011;6865;52.552;13.434;2023-04-15T05:01:22;26.87;;;18.90;;
13588;SDS011;6865;52.552;13.434;2023-04-15T05:03:49;27.17;;;19.10;;
13588;SDS011;6865;52.552;13.434;2023-04-15T05:06:16;24.37;;;19.37;;
13588;SDS011;6865;52.552;13.434;2023-04-15T05:08:42;23.57;;;18.73;;
13588;SDS011;6865;52.552;13.434;2023-04-15T05:11:09;25.77;;;19.37;;
13588;SDS011;6865;52.552;13.434;2023-04-15T05:13:36;27.43;;;20.17;;
13588;SDS011;6865;52.552;13.434;2023-04-15T05:16:04;24.70;;;18.77;;
13588;SDS011;6865;52.552;13.434;2023-04-15T05:18:31;24.70;;;19.00;;
13588;SDS011;6865;52.552;13.434;2023-04-15T05:20:58;24.77;;;18.50;;
13588;SDS011;6865;52.552;13.434;2023-04-15T05:23:25;25.93;;;18.03;;
13588;SDS011;6865;52.552;13.434;2023-04-15T05:25:51;21.73;;;17.77;;
13588;SDS011;6865;52.552;13.434;2023-04-15T05:28:18;23.97;;;17.67;;
13588;SDS011;6865;52.552;13.434;2023-04-15T05:30:48;20.57;;;16.77;;
13588;SDS011;6865;52.552;13.434;2023-04-15T05:33:15;22.80;;;16.67;;
13588;SDS011;6865;52.552;13.434;2023-04-15T05:35:42;21.53;;;16.50;;
13588;SDS011;6865;52.552;13.434;2023-04-15T05:38:09;20.07;;;15.63;;
13588;SDS011;6865;52.552;13.434;2023-04-15T05:40:35;22.23;;;16.07;;
13588;SDS011;6865;52.552;13.434;2023-04-15T05:43:02;21.73;;;15.73;;
13588;SDS011;6865;52.552;13.434;2023-04-15T05:45:29;19.43;;;16.13;;
13588;SDS011;6865;52.552;13.434;2023-04-15T05:47:56;21.73;;;15.67;;
13588;SDS011;6865;52.552;13.434;2023-04-15T05:50:22;20.77;;;15.47;;
13588;SDS011;6865;52.552;13.434;2023-04-15T05:52:49;21.37;;;15.20;;
13588;SDS011;6865;52.552;13.434;2023-04-15T05:55:15;21.23;;;14.90;;
13588;SDS011;6865;52.552;13.434;2023-04-15T05:57:42;18.87;;;15.27;;
13588;SDS011;6865;52.552;13.434;2023-04-15T06:00:09;19.73;;;14.33;;
13588;SDS011;6865;52.552;13.434;2023-04-15T06:02:36;19.50;;;13.50;;
13588;SDS011;6865;52.552;13.434;2023-04-15T06:05:03;18.77;;;14.20;;
13588;SDS011;6865;52.552;13.434;2023-04-15T06:07:35;16.20;;;13.60;;
13588;SDS011;6865;52.552;13.434;2023-04-15T06:10:02;18.67;;;13.93;;
13588;SDS011;6865;52.552;13.434;2023-04-15T06:12:30;15.17;;;12.83;;
13588;SDS011;6865;52.552;13.434;2023-04-15T06:14:57;14.70;;;12.90;;
13588;SDS011;6865;52.552;13.434;2023-04-15T06:17:25;17.93;;;13.07;;
13588;SDS011;6865;52.552;13.434;2023-04-15T06:19:52;14.67;;;12.03;;
13588;SDS011;6865;52.552;13.434;2023-04-15T06:22:22;14.47;;;11.87;;
13588;SDS011;6865;52.552;13.434;2023-04-15T06:24:49;14.17;;;12.10;;
13588;SDS011;6865;52.552;13.434;2023-04-15T06:27:16;15.03;;;11.37;;
13588;SDS011;6865;52.552;13.434;2023-04-15T06:29:43;16.37;;;11.63;;
13588;SDS011;6865;52.552;13.434;2023-04-15T06:32:10;14.30;;;12.33;;
13588;SDS011;6865;52.552;13.434;2023-04-15T06:34:38;15.03;;;11.30;;
13588;SDS011;6865;52.552;13.434;2023-04-15T06:37:04;12.70;;;10.50;;
13588;SDS011;6865;52.552;13.434;2023-04-15T06:39:31;12.37;;;10.87;;
13588;SDS011;6865;52.552;13.434;2023-04-15T06:41:58;12.47;;;10.20;;
13588;SDS011;6865;52.552;13.434;2023-04-15T06:44:25;12.97;;;10.53;;
13588;SDS011;6865;52.552;13.434;2023-04-15T06:46:51;13.67;;;10.47;;
13588;SDS011;6865;52.552;13.434;2023-04-15T06:49:18;12.23;;;10.03;;
13588;SDS011;6865;52.552;13.434;2023-04-15T06:51:45;14.63;;;9.20;;
13588;SDS011;6865;52.552;13.434;2023-04-15T06:54:11;11.97;;;9.83;;
13588;SDS011;6865;52.552;13.434;2023-04-15T06:56:38;11.97;;;9.50;;
13588;SDS011;6865;52.552;13.434;2023-04-15T06:59:04;11.47;;;10.10;;
13588;SDS011;6865;52.552;13.434;2023-04-15T07:01:34;12.27;;;9.73;;
13588;SDS011;6865;52.552;13.434;2023-04-15T07:04:01;10.73;;;9.50;;
13588;SDS011;6865;52.552;13.434;2023-04-15T07:06:27;10.97;;;9.27;;
13588;SDS011;6865;52.552;13.434;2023-04-15T07:08:57;10.60;;;9.30;;
13588;SDS011;6865;52.552;13.434;2023-04-15T07:11:25;11.87;;;9.57;;
13588;SDS011;6865;52.552;13.434;2023-04-15T07:13:52;14.23;;;9.40;;
13588;SDS011;6865;52.552;13.434;2023-04-15T07:16:18;12.73;;;9.37;;
13588;SDS011;6865;52.552;13.434;2023-04-15T07:18:45;10.17;;;8.83;;
13588;SDS011;6865;52.552;13.434;2023-04-15T07:21:12;13.17;;;9.93;;
13588;SDS011;6865;52.552;13.434;2023-04-15T07:23:39;16.20;;;10.13;;
13588;SDS011;6865;52.552;13.434;2023-04-15T07:26:07;10.77;;;9.60;;
13588;SDS011;6865;52.552;13.434;2023-04-15T07:28:34;12.20;;;9.73;;
13588;SDS011;6865;52.552;13.434;2023-04-15T07:31:00;12.67;;;9.60;;
13588;SDS011;6865;52.552;13.434;2023-04-15T07:33:27;13.00;;;10.00;;
13588;SDS011;6865;52.552;13.434;2023-04-15T07:35:53;11.57;;;9.60;;
13588;SDS011;6865;52.552;13.434;2023-04-15T07:38:20;12.47;;;9.13;;
13588;SDS011;6865;52.552;13.434;2023-04-15T07:40:47;11.03;;;9.93;;
13588;SDS011;6865;52.552;13.434;2023-04-15T07:43:14;12.87;;;10.00;;
13588;SDS011;6865;52.552;13.434;2023-04-15T07:45:41;10.97;;;9.83;;
13588;SDS011;6865;52.552;13.434;2023-04-15T07:48:07;12.73;;;9.40;;
13588;SDS011;6865;52.552;13.434;2023-04-15T07:50:34;13.03;;;10.97;;
13588;SDS011;6865;52.552;13.434;2023-04-15T07:53:01;12.03;;;9.63;;
13588;SDS011;6865;52.552;13.434;2023-04-15T07:55:27;11.50;;;10.30;;
13588;SDS011;6865;52.552;13.434;2023-04-15T07:57:55;12.63;;;10.47;;
13588;SDS011;6865;52.552;13.434;2023-04-15T08:00:22;13.60;;;10.60;;
13588;SDS011;6865;52.552;13.434;2023-04-15T08:02:49;11.63;;;10.17;;
13588;SDS011;6865;52.552;13.434;2023-04-15T08:05:18;12.80;;;10.77;;
13588;SDS011;6865;52.552;13.434;2023-04-15T08:07:45;11.73;;;10.47;;
13588;SDS011;6865;52.552;13.434;2023-04-15T08:10:11;14.33;;;10.33;;
13588;SDS011;6865;52.552;13.434;2023-04-15T08:12:39;12.57;;;10.63;;
13588;SDS011;6865;52.552;13.434;2023-04-15T08:15:06;13.50;;;10.60;;
13588;SDS011;6865;52.552;13.434;2023-04-15T08:17:34;13.57;;;10.97;;
13588;SDS011;6865;52.552;13.434;2023-04-15T08:20:00;13.57;;;10.27;;
13588;SDS011;6865;52.552;13.434;2023-04-15T08:22:29;14.40;;;10.87;;
13588;SDS011;6865;52.552;13.434;2023-04-15T08:24:56;11.93;;;10.63;;
13588;SDS011;6865;52.552;13.434;2023-04-15T08:27:23;11.80;;;10.60;;
13588;SDS011;6865;52.552;13.434;2023-04-15T08:29:49;15.17;;;11.13;;
13588;SDS011;6865;52.552;13.434;2023-04-15T08:32:16;12.00;;;9.97;;
13588;SDS011;6865;52.552;13.434;2023-04-15T08:34:44;15.27;;;11.20;;
13588;SDS011;6865;52.552;13.434;2023-04-15T08:37:10;13.87;;;10.83;;
13588;SDS011;6865;52.552;13.434;2023-04-15T08:39:37;13.50;;;12.10;;
13588;SDS011;6865;52.552;13.434;2023-04-15T08:42:05;14.07;;;11.53;;
13588;SDS011;6865;52.552;13.434;2023-04-15T08:44:44;13.30;;;10.80;;
13588;SDS011;6865;52.552;13.434;2023-04-15T08:47:12;12.93;;;11.00;;
13588;SDS011;6865;52.552;13.434;2023-04-15T08:49:42;12.70;;;11.40;;
13588;SDS011;6865;52.552;13.434;2023-04-15T08:52:09;12.73;;;10.90;;
13588;SDS011;6865;52.552;13.434;2023-04-15T08:54:36;12.90;;;11.53;;
13588;SDS011;6865;52.552;13.434;2023-04-15T08:57:03;14.07;;;11.60;;
13588;SDS011;6865;52.552;13.434;2023-04-15T08:59:31;13.83;;;11.70;;
13588;SDS011;6865;52.552;13.434;2023-04-15T09:01:57;12.20;;;10.90;;
13588;SDS011;6865;52.552;13.434;2023-04-15T09:04:24;14.40;;;11.57;;
13588;SDS011;6865;52.552;13.434;2023-04-15T09:06:51;13.73;;;11.13;;
13588;SDS011;6865;52.552;13.434;2023-04-15T09:09:17;13.13;;;11.73;;
13588;SDS011;6865;52.552;13.434;2023-04-15T09:11:44;15.57;;;13.80;;
13588;SDS011;6865;52.552;13.434;2023-04-15T09:14:11;12.97;;;11.53;;
13588;SDS011;6865;52.552;13.434;2023-04-15T09:16:54;12.53;;;11.17;;
13588;SDS011;6865;52.552;13.434;2023-04-15T09:19:30;13.60;;;11.57;;
13588;SDS011;6865;52.552;13.434;2023-04-15T09:21:59;12.30;;;11.03;;
13588;SDS011;6865;52.552;13.434;2023-04-15T09:24:37;12.93;;;11.53;;
13588;SDS011;6865;52.552;13.434;2023-04-15T09:27:05;12.90;;;11.23;;
13588;SDS011;6865;52.552;13.434;2023-04-15T09:29:32;12.80;;;11.13;;
13588;SDS011;6865;52.552;13.434;2023-04-15T09:32:09;12.47;;;10.70;;
13588;SDS011;6865;52.552;13.434;2023-04-15T09:34:37;13.17;;;11.00;;
13588;SDS011;6865;52.552;13.434;2023-04-15T09:37:04;14.07;;;11.20;;
13588;SDS011;6865;52.552;13.434;2023-04-15T09:39:48;12.37;;;10.97;;
13588;SDS011;6865;52.552;13.434;2023-04-15T09:42:19;12.60;;;11.27;;
13588;SDS011;6865;52.552;13.434;2023-04-15T09:44:49;12.03;;;10.83;;
13588;SDS011;6865;52.552;13.434;2023-04-15T09:47:27;11.57;;;10.37;;
13588;SDS011;6865;52.552;13.434;2023-04-15T09:49:58;13.30;;;11.13;;
13588;SDS011;6865;52.552;13.434;2023-04-15T09:52:26;12.53;;;10.20;;
13588;SDS011;6865;52.552;13.434;2023-04-15T09:54:55;13.03;;;11.00;;
13588;SDS011;6865;52.552;13.434;2023-04-15T09:57:23;12.07;;;10.80;;
13588;SDS011;6865;52.552;13.434;2023-04-15T09:59:50;10.97;;;9.80;;
13588;SDS011;6865;52.552;13.434;2023-04-15T10:02:17;11.70;;;10.50;;
13588;SDS011;6865;52.552;13.434;2023-04-15T10:04:46;12.60;;;10.40;;
13588;SDS011;6865;52.552;13.434;2023-04-15T10:07:14;12.87;;;10.50;;
13588;SDS011;6865;52.552;13.434;2023-04-15T10:09:43;11.50;;;10.33;;
13588;SDS011;6865;52.552;13.434;2023-04-15T10:12:11;16.03;;;10.80;;
13588;SDS011;6865;52.552;13.434;2023-04-15T10:14:38;12.37;;;10.70;;
13588;SDS011;6865;52.552;13.434;2023-04-15T10:17:08;12.30;;;11.00;;
13588;SDS011;6865;52.552;13.434;2023-04-15T10:19:37;13.07;;;10.90;;
13588;SDS011;6865;52.552;13.434;2023-04-15T10:22:05;12.20;;;10.57;;
13588;SDS011;6865;52.552;13.434;2023-04-15T10:24:32;13.20;;;11.60;;
13588;SDS011;6865;52.552;13.434;2023-04-15T10:26:59;12.87;;;11.00;;
13588;SDS011;6865;52.552;13.434;2023-04-15T10:29:28;12.63;;;11.20;;
13588;SDS011;6865;52.552;13.434;2023-04-15T10:31:55;12.60;;;10.97;;
13588;SDS011;6865;52.552;13.434;2023-04-15T10:34:24;12.27;;;10.47;;
13588;SDS011;6865;52.552;13.434;2023-04-15T10:36:53;13.27;;;11.47;;
13588;SDS011;6865;52.552;13.434;2023-04-15T10:39:38;11.97;;;10.77;;
13588;SDS011;6865;52.552;13.434;2023-04-15T10:42:08;12.87;;;11.43;;
13588;SDS011;6865;52.552;13.434;2023-04-15T10:44:38;12.07;;;10.70;;
13588;SDS011;6865;52.552;13.434;2023-04-15T10:47:12;11.43;;;10.27;;
13588;SDS011;6865;52.552;13.434;2023-04-15T10:49:44;11.93;;;10.70;;
13588;SDS011;6865;52.552;13.434;2023-04-15T10:52:13;12.47;;;10.73;;
13588;SDS011;6865;52.552;13.434;2023-04-15T10:54:41;14.37;;;10.67;;
13588;SDS011;6865;52.552;13.434;2023-04-15T10:57:13;13.67;;;11.20;;
13588;SDS011;6865;52.552;13.434;2023-04-15T11:08:07;12.33;;;11.00;;
13588;SDS011;6865;52.552;13.434;2023-04-15T11:13:06;11.93;;;10.70;;
13588;SDS011;6865;52.552;13.434;2023-04-15T11:15:44;11.93;;;10.67;;
13588;SDS011;6865;52.552;13.434;2023-04-15T11:18:13;12.03;;;10.83;;
13588;SDS011;6865;52.552;13.434;2023-04-15T11:20:43;12.13;;;10.07;;
13588;SDS011;6865;52.552;13.434;2023-04-15T11:23:17;13.33;;;10.50;;
13588;SDS011;6865;52.552;13.434;2023-04-15T11:25:45;12.33;;;10.50;;
13588;SDS011;6865;52.552;13.434;2023-04-15T11:28:13;12.57;;;10.30;;
13588;SDS011;6865;52.552;13.434;2023-04-15T11:30:41;11.83;;;10.43;;
13588;SDS011;6865;52.552;13.434;2023-04-15T11:33:08;12.47;;;10.67;;
13588;SDS011;6865;52.552;13.434;2023-04-15T11:35:39;13.93;;;10.97;;
13588;SDS011;6865;52.552;13.434;2023-04-15T11:38:07;11.97;;;10.77;;
13588;SDS011;6865;52.552;13.434;2023-04-15T11:40:37;11.53;;;10.30;;
13588;SDS011;6865;52.552;13.434;2023-04-15T11:45:35;12.10;;;10.57;;
13588;SDS011;6865;52.552;13.434;2023-04-15T11:48:06;11.63;;;10.00;;
13588;SDS011;6865;52.552;13.434;2023-04-15T11:50:38;11.93;;;10.57;;
13588;SDS011;6865;52.552;13.434;2023-04-15T11:53:07;13.00;;;10.87;;
13588;SDS011;6865;52.552;13.434;2023-04-15T11:55:47;12.60;;;10.20;;
13588;SDS011;6865;52.552;13.434;2023-04-15T11:58:19;12.90;;;10.30;;
13588;SDS011;6865;52.552;13.434;2023-04-15T12:00:51;11.47;;;9.47;;
13588;SDS011;6865;52.552;13.434;2023-04-15T12:03:26;12.50;;;11.23;;
13588;SDS011;6865;52.552;13.434;2023-04-15T12:06:07;11.50;;;10.30;;
13588;SDS011;6865;52.552;13.434;2023-04-15T12:14:06;11.83;;;10.57;;
13588;SDS011;6865;52.552;13.434;2023-04-15T12:16:45;11.00;;;9.90;;
13588;SDS011;6865;52.552;13.434;2023-04-15T12:19:24;11.97;;;10.20;;
13588;SDS011;6865;52.552;13.434;2023-04-15T12:21:59;12.73;;;9.83;;
13588;SDS011;6865;52.552;13.434;2023-04-15T12:24:29;11.43;;;10.23;;
13588;SDS011;6865;52.552;13.434;2023-04-15T12:27:00;11.57;;;9.83;;
13588;SDS011;6865;52.552;13.434;2023-04-15T12:29:29;11.53;;;9.93;;
13588;SDS011;6865;52.552;13.434;2023-04-15T12:31:57;12.43;;;10.00;;
13588;SDS011;6865;52.552;13.434;2023-04-15T12:35:03;12.43;;;10.70;;
13588;SDS011;6865;52.552;13.434;2023-04-15T12:37:23;13.70;;;10.10;;
13588;SDS011;6865;52.552;13.434;2023-04-15T12:39:51;11.30;;;9.97;;
13588;SDS011;6865;52.552;13.434;2023-04-15T12:42:19;10.83;;;9.23;;
13588;SDS011;6865;52.552;13.434;2023-04-15T12:44:45;11.40;;;10.20;;
13588;SDS011;6865;52.552;13.434;2023-04-15T12:47:12;10.20;;;9.10;;
13588;SDS011;6865;52.552;13.434;2023-04-15T12:49:39;10.30;;;9.30;;
13588;SDS011;6865;52.552;13.434;2023-04-15T12:52:06;10.13;;;8.83;;
13588;SDS011;6865;52.552;13.434;2023-04-15T12:54:33;10.03;;;9.03;;
13588;SDS011;6865;52.552;13.434;2023-04-15T12:57:01;10.53;;;9.40;;
13588;SDS011;6865;52.552;13.434;2023-04-15T12:59:32;9.40;;;8.50;;
13588;SDS011;6865;52.552;13.434;2023-04-15T13:01:59;9.83;;;8.77;;
13588;SDS011;6865;52.552;13.434;2023-04-15T13:04:26;10.70;;;8.60;;
13588;SDS011;6865;52.552;13.434;2023-04-15T13:06:56;9.50;;;8.53;;
13588;SDS011;6865;52.552;13.434;2023-04-15T13:09:22;10.63;;;8.97;;
13588;SDS011;6865;52.552;13.434;2023-04-15T13:11:49;10.03;;;9.03;;
13588;SDS011;6865;52.552;13.434;2023-04-15T13:14:16;11.73;;;8.73;;
13588;SDS011;6865;52.552;13.434;2023-04-15T13:16:42;9.10;;;7.70;;
13588;SDS011;6865;52.552;13.434;2023-04-15T13:19:09;8.43;;;7.30;;
13588;SDS011;6865;52.552;13.434;2023-04-15T13:21:36;9.07;;;7.23;;
13588;SDS011;6865;52.552;13.434;2023-04-15T13:24:02;8.20;;;7.40;;
13588;SDS011;6865;52.552;13.434;2023-04-15T13:26:30;9.70;;;7.63;;
13588;SDS011;6865;52.552;13.434;2023-04-15T13:28:57;7.57;;;6.57;;
13588;SDS011;6865;52.552;13.434;2023-04-15T13:31:24;9.63;;;6.83;;
13588;SDS011;6865;52.552;13.434;2023-04-15T13:33:55;7.70;;;7.00;;
13588;SDS011;6865;52.552;13.434;2023-04-15T13:36:22;7.13;;;6.43;;
13588;SDS011;6865;52.552;13.434;2023-04-15T13:38:48;7.63;;;6.93;;
13588;SDS011;6865;52.552;13.434;2023-04-15T13:41:16;9.13;;;6.77;;
13588;SDS011;6865;52.552;13.434;2023-04-15T13:43:43;7.60;;;6.80;;
13588;SDS011;6865;52.552;13.434;2023-04-15T13:46:10;6.90;;;6.20;;
13588;SDS011;6865;52.552;13.434;2023-04-15T13:48:37;8.07;;;6.47;;
13588;SDS011;6865;52.552;13.434;2023-04-15T13:51:04;8.73;;;7.50;;
13588;SDS011;6865;52.552;13.434;2023-04-15T13:53:30;9.47;;;7.77;;
13588;SDS011;6865;52.552;13.434;2023-04-15T13:56:03;7.60;;;6.90;;
13588;SDS011;6865;52.552;13.434;2023-04-15T13:58:31;8.00;;;7.20;;
13588;SDS011;6865;52.552;13.434;2023-04-15T14:00:57;9.23;;;7.50;;
13588;SDS011;6865;52.552;13.434;2023-04-15T14:03:24;8.13;;;7.33;;
13588;SDS011;6865;52.552;13.434;2023-04-15T14:05:51;7.37;;;6.57;;
13588;SDS011;6865;52.552;13.434;2023-04-15T14:08:21;7.87;;;7.07;;
13588;SDS011;6865;52.552;13.434;2023-04-15T14:10:51;7.90;;;7.10;;
13588;SDS011;6865;52.552;13.434;2023-04-15T14:13:18;8.17;;;7.37;;
13588;SDS011;6865;52.552;13.434;2023-04-15T14:15:44;8.00;;;6.67;;
13588;SDS011;6865;52.552;13.434;2023-04-15T14:18:11;8.23;;;6.67;;
13588;SDS011;6865;52.552;13.434;2023-04-15T14:20:38;8.40;;;6.50;;
13588;SDS011;6865;52.552;13.434;2023-04-15T14:23:05;7.40;;;6.43;;
13588;SDS011;6865;52.552;13.434;2023-04-15T14:25:31;8.67;;;7.10;;
13588;SDS011;6865;52.552;13.434;2023-04-15T14:27:59;7.57;;;6.83;;
13588;SDS011;6865;52.552;13.434;2023-04-15T14:30:27;9.17;;;6.57;;
13588;SDS011;6865;52.552;13.434;2023-04-15T14:32:54;7.33;;;6.63;;
13588;SDS011;6865;52.552;13.434;2023-04-15T14:35:20;7.70;;;6.90;;
13588;SDS011;6865;52.552;13.434;2023-04-15T14:37:49;8.73;;;6.40;;
13588;SDS011;6865;52.552;13.434;2023-04-15T14:40:16;6.87;;;6.27;;
13588;SDS011;6865;52.552;13.434;2023-04-15T14:42:43;7.10;;;6.40;;
13588;SDS011;6865;52.552;13.434;2023-04-15T14:45:10;8.20;;;7.40;;
13588;SDS011;6865;52.552;13.434;2023-04-15T14:47:37;8.67;;;7.77;;
13588;SDS011;6865;52.552;13.434;2023-04-15T14:50:04;8.23;;;7.33;;